Time;durP1;ratioP1;P1;durP2;ratioP2;P2;SDS_P1;SDS_P2;PMS_P1;PMS_P2;Temp;Humidity;BMP_temperature;BMP_pressure;BME280_temperature;BME280_humidity;BME280_pressure;Samples;Min_cycle;Max_cycle;Signal;HPM_P1;HPM_P2
2021/06/10 00:01:44;;;;;;;11.82;9.25;;;;;;;;;;5047455;28;20028;-71
2021/06/10 00:04:10;;;;;;;11.68;8.50;;;;;;;;;;5053927;28;20097;-73
2021/06/10 00:06:35;;;;;;;11.55;8.98;;;;;;;;;;5030587;28;20498;-72
2021/06/10 00:09:00;;;;;;;11.07;9.27;;;;;;;;;;5047819;28;20131;-71
2021/06/10 00:11:25;;;;;;;9.85;8.50;;;;;;;;;;5046999;28;20607;-71
2021/06/10 00:13:50;;;;;;;11.88;9.38;;;;;;;;;;5048277;28;20017;-71
2021/06/10 00:16:16;;;;;;;10.00;8.40;;;;;;;;;;5062518;28;20460;-71
2021/06/10 00:18:42;;;;;;;10.93;9.02;;;;;;;;;;5047828;28;20406;-70
2021/06/10 00:21:07;;;;;;;9.63;8.57;;;;;;;;;;5048379;28;20087;-71
2021/06/10 00:23:33;;;;;;;11.50;8.88;;;;;;;;;;5047683;28;20043;-71
2021/06/10 00:25:58;;;;;;;11.50;8.93;;;;;;;;;;5052080;28;20439;-71
2021/06/10 00:28:23;;;;;;;12.67;8.80;;;;;;;;;;5058826;28;20060;-72
2021/06/10 00:30:48;;;;;;;12.68;8.77;;;;;;;;;;5048866;28;20279;-72
2021/06/10 00:33:13;;;;;;;12.10;8.75;;;;;;;;;;5059473;28;20384;-71
2021/06/10 00:35:38;;;;;;;11.13;9.32;;;;;;;;;;5054046;28;20037;-71
2021/06/10 00:38:04;;;;;;;10.95;9.30;;;;;;;;;;5054677;28;20021;-71
2021/06/10 00:40:31;;;;;;;11.07;9.38;;;;;;;;;;5055332;28;20572;-72
2021/06/10 00:42:57;;;;;;;11.70;9.55;;;;;;;;;;5042052;28;20021;-71
2021/06/10 00:45:23;;;;;;;11.50;9.40;;;;;;;;;;5051311;28;20060;-71
2021/06/10 00:47:50;;;;;;;11.95;9.25;;;;;;;;;;5052989;28;20044;-71
2021/06/10 00:50:17;;;;;;;10.85;8.70;;;;;;;;;;5052715;28;20019;-71
2021/06/10 00:52:44;;;;;;;11.38;9.10;;;;;;;;;;5051162;28;20082;-72
2021/06/10 00:55:10;;;;;;;11.57;9.95;;;;;;;;;;5053653;28;20605;-71
2021/06/10 00:57:35;;;;;;;10.68;9.45;;;;;;;;;;5070783;28;20032;-71
2021/06/10 01:00:00;;;;;;;11.98;9.75;;;;;;;;;;5055570;28;20009;-71
2021/06/10 01:02:25;;;;;;;13.02;10.18;;;;;;;;;;5060134;28;20387;-71
2021/06/10 01:04:50;;;;;;;13.27;9.57;;;;;;;;;;5062330;28;20113;-72
2021/06/10 01:07:32;;;;;;;11.88;9.68;;;;;;;;;;5050931;28;20029;-72
2021/06/10 01:09:59;;;;;;;14.40;10.25;;;;;;;;;;5055174;28;20654;-70
2021/06/10 01:12:34;;;;;;;12.18;10.10;;;;;;;;;;5051872;28;20021;-71
2021/06/10 01:15:01;;;;;;;12.40;9.73;;;;;;;;;;5053380;28;20090;-72
2021/06/10 01:17:27;;;;;;;12.98;10.45;;;;;;;;;;5061006;28;20036;-71
2021/06/10 01:20:06;;;;;;;14.05;10.50;;;;;;;;;;5053008;28;20029;-72
2021/06/10 01:22:50;;;;;;;13.63;10.63;;;;;;;;;;5056647;28;20298;-70
2021/06/10 01:25:24;;;;;;;13.60;10.68;;;;;;;;;;5049557;28;20073;-71
2021/06/10 01:28:13;;;;;;;13.02;10.38;;;;;;;;;;5045919;28;20047;-71
2021/06/10 01:30:43;;;;;;;12.13;10.20;;;;;;;;;;4946866;28;20031;-71
2021/06/10 01:33:34;;;;;;;13.90;11.13;;;;;;;;;;4951268;28;20035;-72
2021/06/10 01:36:11;;;;;;;12.27;10.40;;;;;;;;;;4945793;28;20124;-71
2021/06/10 01:38:38;;;;;;;15.23;12.00;;;;;;;;;;4949820;29;20475;-72
2021/06/10 01:41:03;;;;;;;15.52;12.10;;;;;;;;;;4949548;29;20072;-71
2021/06/10 01:43:30;;;;;;;13.82;11.18;;;;;;;;;;4950074;28;20144;-71
2021/06/10 01:45:56;;;;;;;15.23;11.82;;;;;;;;;;4954866;28;20403;-71
2021/06/10 01:48:22;;;;;;;14.45;11.85;;;;;;;;;;4949323;29;20082;-71
2021/06/10 01:50:48;;;;;;;16.58;11.90;;;;;;;;;;4950160;28;20042;-72
2021/06/10 01:53:14;;;;;;;15.40;12.50;;;;;;;;;;4953917;28;20031;-71
2021/06/10 01:55:40;;;;;;;14.88;12.27;;;;;;;;;;4951166;28;20031;-71
2021/06/10 01:58:05;;;;;;;14.20;11.75;;;;;;;;;;4930050;29;20111;-72
2021/06/10 02:00:31;;;;;;;15.52;12.15;;;;;;;;;;4948284;29;20047;-71
2021/06/10 02:02:56;;;;;;;16.88;12.32;;;;;;;;;;4949322;29;20465;-71
2021/06/10 02:05:22;;;;;;;16.00;12.68;;;;;;;;;;4949100;29;20043;-71
2021/06/10 02:07:48;;;;;;;16.70;13.55;;;;;;;;;;5000460;28;20616;-70
2021/06/10 02:10:15;;;;;;;15.45;12.95;;;;;;;;;;5057002;28;20054;-71
2021/06/10 02:12:42;;;;;;;16.13;12.95;;;;;;;;;;5052192;28;20067;-71
2021/06/10 02:15:08;;;;;;;16.27;13.02;;;;;;;;;;5049876;28;20484;-70
2021/06/10 02:17:34;;;;;;;17.45;13.48;;;;;;;;;;5054161;28;20031;-72
2021/06/10 02:20:00;;;;;;;17.05;13.23;;;;;;;;;;5048064;28;20028;-71
2021/06/10 02:22:25;;;;;;;15.95;13.00;;;;;;;;;;5054579;28;20024;-71
2021/06/10 02:24:51;;;;;;;16.00;12.75;;;;;;;;;;5048918;28;20464;-71
2021/06/10 02:27:16;;;;;;;17.17;12.80;;;;;;;;;;5054521;28;20181;-71
2021/06/10 02:29:42;;;;;;;17.90;13.50;;;;;;;;;;5054269;28;20139;-70
2021/06/10 02:32:07;;;;;;;16.63;12.75;;;;;;;;;;5046968;28;20365;-71
2021/06/10 02:34:32;;;;;;;17.83;13.40;;;;;;;;;;5052200;28;20157;-70
2021/06/10 02:36:58;;;;;;;18.70;13.93;;;;;;;;;;5047849;28;20029;-70
2021/06/10 02:39:23;;;;;;;15.32;12.32;;;;;;;;;;5048388;28;20021;-70
2021/06/10 02:41:50;;;;;;;17.50;13.38;;;;;;;;;;5043468;28;20063;-70
2021/06/10 02:44:15;;;;;;;17.48;14.15;;;;;;;;;;5048413;28;20095;-71
2021/06/10 02:46:41;;;;;;;16.02;13.05;;;;;;;;;;5044485;28;20483;-71
2021/06/10 02:49:07;;;;;;;22.00;13.68;;;;;;;;;;5053887;28;20542;-72
2021/06/10 02:51:33;;;;;;;16.60;13.43;;;;;;;;;;5060532;28;20597;-72
2021/06/10 02:54:00;;;;;;;18.90;13.52;;;;;;;;;;5050951;28;20021;-71
2021/06/10 02:56:26;;;;;;;16.85;12.95;;;;;;;;;;5048719;28;20020;-72
2021/06/10 02:58:53;;;;;;;16.08;13.15;;;;;;;;;;5051681;28;20064;-71
2021/06/10 03:01:18;;;;;;;15.43;12.40;;;;;;;;;;5054031;28;20090;-73
2021/06/10 03:03:44;;;;;;;18.33;13.50;;;;;;;;;;5054016;28;20431;-71
2021/06/10 03:06:09;;;;;;;18.40;13.80;;;;;;;;;;5047093;28;20040;-70
2021/06/10 03:08:35;;;;;;;16.10;12.88;;;;;;;;;;5046963;28;20017;-71
2021/06/10 03:11:01;;;;;;;16.83;12.63;;;;;;;;;;5048319;28;20071;-71
2021/06/10 03:13:28;;;;;;;17.48;13.15;;;;;;;;;;5050823;28;20436;-71
2021/06/10 03:15:54;;;;;;;17.23;12.20;;;;;;;;;;5041119;28;20028;-71
2021/06/10 03:18:19;;;;;;;16.45;12.05;;;;;;;;;;5057595;28;20556;-72
2021/06/10 03:20:45;;;;;;;15.68;12.45;;;;;;;;;;5051458;28;20884;-72
2021/06/10 03:23:11;;;;;;;16.65;12.65;;;;;;;;;;5054859;28;20555;-72
2021/06/10 03:25:37;;;;;;;16.25;12.48;;;;;;;;;;5056491;28;20045;-72
2021/06/10 03:28:03;;;;;;;17.20;11.60;;;;;;;;;;5046824;28;20021;-72
2021/06/10 03:30:28;;;;;;;15.35;12.23;;;;;;;;;;5054325;28;20037;-71
2021/06/10 03:32:55;;;;;;;15.45;11.82;;;;;;;;;;5043531;28;20040;-71
2021/06/10 03:35:21;;;;;;;14.48;11.40;;;;;;;;;;5046753;28;20429;-70
2021/06/10 03:37:46;;;;;;;18.35;12.00;;;;;;;;;;5056654;28;20172;-70
2021/06/10 03:40:12;;;;;;;14.45;11.73;;;;;;;;;;5051132;28;20093;-72
2021/06/10 03:42:39;;;;;;;14.35;11.55;;;;;;;;;;5047585;28;20036;-71
2021/06/10 03:45:04;;;;;;;14.05;11.77;;;;;;;;;;5048377;28;20021;-71
2021/06/10 03:47:29;;;;;;;15.75;11.23;;;;;;;;;;5049984;28;20098;-71
2021/06/10 03:49:55;;;;;;;13.65;10.63;;;;;;;;;;5048521;28;20075;-71
2021/06/10 03:52:24;;;;;;;14.63;10.98;;;;;;;;;;5047993;28;20349;-72
2021/06/10 03:54:49;;;;;;;13.55;10.45;;;;;;;;;;5052430;28;20031;-71
2021/06/10 03:57:14;;;;;;;12.88;9.90;;;;;;;;;;5049350;28;20476;-71
2021/06/10 03:59:39;;;;;;;13.27;10.17;;;;;;;;;;5060828;28;20033;-70
2021/06/10 04:02:05;;;;;;;12.73;10.10;;;;;;;;;;5052223;28;21012;-70
2021/06/10 04:04:30;;;;;;;14.07;10.30;;;;;;;;;;5054145;28;20072;-70
2021/06/10 04:06:57;;;;;;;12.00;9.90;;;;;;;;;;5053253;28;20033;-71
2021/06/10 04:09:22;;;;;;;13.43;10.32;;;;;;;;;;5052129;28;20025;-71
2021/06/10 04:11:47;;;;;;;12.30;9.80;;;;;;;;;;5052070;28;20039;-71
2021/06/10 04:14:12;;;;;;;11.50;9.07;;;;;;;;;;5056132;28;20029;-70
2021/06/10 04:16:37;;;;;;;14.77;10.15;;;;;;;;;;5046706;28;20086;-71
2021/06/10 04:19:03;;;;;;;11.63;9.50;;;;;;;;;;5063305;28;20606;-72
2021/06/10 04:21:28;;;;;;;13.97;10.10;;;;;;;;;;5052130;28;20025;-72
2021/06/10 04:23:53;;;;;;;12.43;9.50;;;;;;;;;;5053803;28;20280;-71
2021/06/10 04:26:18;;;;;;;12.45;9.27;;;;;;;;;;5054518;28;20123;-71
2021/06/10 04:28:45;;;;;;;12.68;9.32;;;;;;;;;;5046638;28;20464;-71
2021/06/10 04:31:11;;;;;;;11.20;8.35;;;;;;;;;;5047024;28;20021;-71
2021/06/10 04:33:36;;;;;;;14.13;8.50;;;;;;;;;;5040931;28;20041;-71
2021/06/10 04:36:01;;;;;;;11.15;8.57;;;;;;;;;;5046792;28;20365;-71
2021/06/10 04:38:26;;;;;;;11.52;8.55;;;;;;;;;;5055281;28;20028;-71
2021/06/10 04:40:51;;;;;;;10.68;8.05;;;;;;;;;;5057719;28;20450;-70
2021/06/10 04:43:16;;;;;;;9.63;7.70;;;;;;;;;;5052178;28;20089;-72
2021/06/10 04:45:42;;;;;;;11.55;8.20;;;;;;;;;;5047616;28;20143;-72
2021/06/10 04:48:07;;;;;;;10.68;7.75;;;;;;;;;;5046292;28;20500;-70
2021/06/10 04:50:34;;;;;;;10.50;8.38;;;;;;;;;;5054630;28;20050;-71
2021/06/10 04:52:59;;;;;;;10.30;8.75;;;;;;;;;;5045363;28;20017;-71
2021/06/10 04:55:24;;;;;;;9.52;8.10;;;;;;;;;;5048004;28;20031;-72
2021/06/10 04:57:50;;;;;;;10.10;8.02;;;;;;;;;;5048037;28;20455;-71
2021/06/10 05:00:15;;;;;;;12.13;8.10;;;;;;;;;;5045768;28;20021;-72
2021/06/10 05:02:41;;;;;;;11.00;7.75;;;;;;;;;;5061244;28;20483;-71
2021/06/10 05:05:06;;;;;;;10.07;7.53;;;;;;;;;;5047891;28;20021;-70
2021/06/10 05:07:32;;;;;;;9.45;7.85;;;;;;;;;;5054987;28;20124;-72
2021/06/10 05:09:57;;;;;;;11.23;8.02;;;;;;;;;;5044552;28;20025;-71
2021/06/10 05:12:22;;;;;;;10.32;7.53;;;;;;;;;;5051444;28;20029;-71
2021/06/10 05:14:47;;;;;;;8.60;7.63;;;;;;;;;;5064303;28;20031;-70
2021/06/10 05:17:12;;;;;;;10.17;7.87;;;;;;;;;;5047493;28;20287;-72
2021/06/10 05:19:37;;;;;;;10.80;8.55;;;;;;;;;;5058020;28;20268;-76
2021/06/10 05:22:03;;;;;;;10.70;7.70;;;;;;;;;;5048411;28;20159;-76
2021/06/10 05:24:28;;;;;;;9.63;7.65;;;;;;;;;;5051275;28;20639;-76
2021/06/10 05:26:54;;;;;;;19.58;8.52;;;;;;;;;;5064260;28;20028;-76
2021/06/10 05:29:19;;;;;;;12.05;8.48;;;;;;;;;;5055984;28;20121;-79
2021/06/10 05:31:44;;;;;;;10.70;8.03;;;;;;;;;;5048672;28;20025;-77
2021/06/10 05:34:09;;;;;;;10.67;8.10;;;;;;;;;;5052561;28;20287;-77
2021/06/10 05:36:35;;;;;;;10.43;8.02;;;;;;;;;;5032675;28;20385;-77
2021/06/10 05:39:00;;;;;;;12.63;8.63;;;;;;;;;;5051193;28;20065;-77
2021/06/10 05:41:25;;;;;;;11.38;8.02;;;;;;;;;;5051259;28;20078;-76
2021/06/10 05:43:50;;;;;;;11.83;8.53;;;;;;;;;;5051923;28;20139;-76
2021/06/10 05:46:15;;;;;;;12.03;8.37;;;;;;;;;;5055342;28;20766;-76
2021/06/10 05:48:40;;;;;;;12.32;8.35;;;;;;;;;;5056486;28;20274;-77
2021/06/10 05:51:06;;;;;;;9.80;7.85;;;;;;;;;;5062400;28;20025;-77
2021/06/10 05:53:31;;;;;;;9.70;8.07;;;;;;;;;;5053547;28;20454;-76
2021/06/10 05:55:57;;;;;;;10.80;8.20;;;;;;;;;;5051297;28;20033;-76
2021/06/10 05:58:22;;;;;;;13.25;8.27;;;;;;;;;;5070498;28;20048;-76
2021/06/10 06:00:48;;;;;;;9.05;8.00;;;;;;;;;;5045580;28;20051;-76
2021/06/10 06:03:13;;;;;;;12.60;7.72;;;;;;;;;;5056524;28;20074;-76
2021/06/10 06:05:39;;;;;;;11.50;8.30;;;;;;;;;;5054965;28;20033;-77
2021/06/10 06:08:04;;;;;;;12.57;8.35;;;;;;;;;;5061688;28;20016;-76
2021/06/10 06:10:29;;;;;;;12.60;8.25;;;;;;;;;;5067113;28;20132;-76
2021/06/10 06:12:58;;;;;;;12.93;8.55;;;;;;;;;;5065192;28;20365;-77
2021/06/10 06:15:24;;;;;;;11.43;8.20;;;;;;;;;;5057148;28;20511;-76
2021/06/10 06:17:50;;;;;;;11.80;8.35;;;;;;;;;;5047258;28;20081;-75
2021/06/10 06:20:16;;;;;;;11.05;8.20;;;;;;;;;;5045157;28;20024;-76
2021/06/10 06:22:43;;;;;;;11.10;8.77;;;;;;;;;;5047077;28;20021;-76
2021/06/10 06:25:10;;;;;;;10.23;8.30;;;;;;;;;;5042523;28;20029;-76
2021/06/10 06:27:35;;;;;;;14.25;8.48;;;;;;;;;;5043697;28;20028;-75
2021/06/10 06:30:00;;;;;;;10.73;8.18;;;;;;;;;;5043592;28;20031;-75
2021/06/10 06:32:25;;;;;;;10.65;7.75;;;;;;;;;;5041081;28;20036;-76
2021/06/10 06:34:51;;;;;;;10.97;7.60;;;;;;;;;;5042301;28;20055;-76
2021/06/10 06:37:16;;;;;;;11.23;8.48;;;;;;;;;;5042896;28;20276;-76
2021/06/10 06:39:41;;;;;;;12.02;8.88;;;;;;;;;;5042832;28;20017;-77
2021/06/10 06:42:06;;;;;;;12.17;9.00;;;;;;;;;;5044521;28;20052;-76
2021/06/10 06:44:32;;;;;;;12.05;9.98;;;;;;;;;;5042180;28;20623;-77
2021/06/10 06:46:57;;;;;;;12.03;9.37;;;;;;;;;;5044865;28;20051;-76
2021/06/10 06:49:22;;;;;;;11.10;8.35;;;;;;;;;;5045769;28;20263;-76
2021/06/10 06:51:47;;;;;;;10.88;8.32;;;;;;;;;;5043727;28;20472;-75
2021/06/10 06:54:12;;;;;;;11.55;8.20;;;;;;;;;;5041789;28;20017;-76
2021/06/10 06:56:38;;;;;;;9.95;7.70;;;;;;;;;;5042602;28;20486;-75
2021/06/10 06:59:03;;;;;;;10.30;7.97;;;;;;;;;;5044011;28;20018;-75
2021/06/10 07:01:28;;;;;;;10.32;7.13;;;;;;;;;;5043839;28;20074;-77
2021/06/10 07:03:53;;;;;;;10.20;7.67;;;;;;;;;;5045031;28;20039;-77
2021/06/10 07:06:18;;;;;;;7.65;6.85;;;;;;;;;;5043740;28;20705;-77
2021/06/10 07:08:44;;;;;;;8.98;7.60;;;;;;;;;;5069345;28;20099;-78
2021/06/10 07:11:09;;;;;;;9.85;8.55;;;;;;;;;;5054944;28;20427;-77
2021/06/10 07:13:34;;;;;;;10.38;8.18;;;;;;;;;;5051861;28;20386;-76
2021/06/10 07:15:59;;;;;;;10.65;8.60;;;;;;;;;;5058724;28;20035;-77
2021/06/10 07:18:25;;;;;;;10.20;8.90;;;;;;;;;;5051633;28;20104;-77
2021/06/10 07:20:50;;;;;;;12.65;9.90;;;;;;;;;;5054171;28;20039;-77
2021/06/10 07:23:15;;;;;;;10.80;8.35;;;;;;;;;;5049927;28;20444;-76
2021/06/10 07:25:41;;;;;;;10.00;8.57;;;;;;;;;;5029877;28;20170;-77
2021/06/10 07:28:06;;;;;;;11.57;8.70;;;;;;;;;;5048541;28;20032;-78
2021/06/10 07:30:31;;;;;;;10.80;8.20;;;;;;;;;;5054487;28;20032;-78
2021/06/10 07:32:57;;;;;;;12.35;8.60;;;;;;;;;;5055245;28;20059;-77
2021/06/10 07:35:22;;;;;;;13.02;9.35;;;;;;;;;;5053194;28;20013;-76
2021/06/10 07:37:51;;;;;;;12.43;8.95;;;;;;;;;;5047066;28;20047;-76
2021/06/10 07:40:17;;;;;;;11.50;8.77;;;;;;;;;;5046645;28;20016;-77
2021/06/10 07:42:42;;;;;;;10.13;8.38;;;;;;;;;;5049603;28;20083;-76
2021/06/10 07:45:07;;;;;;;10.07;8.20;;;;;;;;;;5049839;28;20059;-75
2021/06/10 07:47:33;;;;;;;9.57;8.02;;;;;;;;;;5047687;28;20017;-75
2021/06/10 07:49:58;;;;;;;8.83;7.40;;;;;;;;;;5065835;28;20055;-76
2021/06/10 07:52:23;;;;;;;10.97;8.27;;;;;;;;;;5038627;28;20283;-80
2021/06/10 07:54:49;;;;;;;11.85;8.90;;;;;;;;;;5052170;28;20306;-74
2021/06/10 07:57:15;;;;;;;12.32;9.32;;;;;;;;;;5060062;28;20024;-74
2021/06/10 07:59:40;;;;;;;11.17;8.80;;;;;;;;;;5048811;28;20488;-76
2021/06/10 08:02:08;;;;;;;10.43;8.50;;;;;;;;;;5052096;28;20335;-72
2021/06/10 08:04:33;;;;;;;9.68;8.18;;;;;;;;;;5056182;28;20623;-74
2021/06/10 08:06:58;;;;;;;11.03;8.77;;;;;;;;;;5053677;28;20120;-75
2021/06/10 08:09:23;;;;;;;9.73;8.60;;;;;;;;;;5054001;28;20263;-73
2021/06/10 08:11:48;;;;;;;9.50;8.50;;;;;;;;;;5049637;28;20354;-73
2021/06/10 08:14:14;;;;;;;11.52;9.05;;;;;;;;;;5053622;28;20021;-73
2021/06/10 08:16:39;;;;;;;10.50;8.37;;;;;;;;;;5055603;28;20021;-74
2021/06/10 08:19:04;;;;;;;10.18;8.43;;;;;;;;;;5048318;28;20263;-73
2021/06/10 08:21:30;;;;;;;13.20;8.73;;;;;;;;;;5055501;28;20025;-73
2021/06/10 08:23:55;;;;;;;10.52;8.80;;;;;;;;;;5062329;28;20017;-74
2021/06/10 08:26:21;;;;;;;10.68;8.25;;;;;;;;;;5063327;28;20119;-73
2021/06/10 08:28:46;;;;;;;11.82;9.10;;;;;;;;;;5054916;28;20021;-73
2021/06/10 08:31:12;;;;;;;9.18;8.18;;;;;;;;;;5057655;28;20108;-73
2021/06/10 08:33:37;;;;;;;9.70;8.05;;;;;;;;;;5066325;28;20052;-74
2021/06/10 08:36:05;;;;;;;8.73;7.82;;;;;;;;;;5079317;28;20078;-75
2021/06/10 08:38:30;;;;;;;10.02;7.85;;;;;;;;;;5069389;28;20013;-74
2021/06/10 08:40:56;;;;;;;10.30;7.87;;;;;;;;;;5048513;28;20063;-73
2021/06/10 08:43:22;;;;;;;9.73;8.60;;;;;;;;;;5048808;28;20771;-73
2021/06/10 08:45:55;;;;;;;9.73;8.20;;;;;;;;;;5053121;28;20040;-74
2021/06/10 08:48:20;;;;;;;9.30;7.82;;;;;;;;;;5037150;28;20079;-73
2021/06/10 08:50:46;;;;;;;10.15;7.95;;;;;;;;;;5051574;28;20060;-74
2021/06/10 08:53:11;;;;;;;9.77;7.95;;;;;;;;;;5057952;28;20052;-74
2021/06/10 08:55:36;;;;;;;10.05;7.63;;;;;;;;;;5056133;28;20087;-74
2021/06/10 08:58:02;;;;;;;9.90;7.03;;;;;;;;;;5052134;28;20021;-74
2021/06/10 09:00:28;;;;;;;12.13;8.37;;;;;;;;;;5052482;28;20029;-73
2021/06/10 09:02:54;;;;;;;8.88;7.35;;;;;;;;;;5054987;28;20275;-74
2021/06/10 09:05:20;;;;;;;8.57;7.50;;;;;;;;;;5057124;28;20191;-74
2021/06/10 09:08:01;;;;;;;8.38;7.50;;;;;;;;;;5053182;28;20551;-74
2021/06/10 09:10:27;;;;;;;7.97;7.15;;;;;;;;;;5062162;28;20484;-74
2021/06/10 09:12:54;;;;;;;9.13;6.70;;;;;;;;;;5048745;28;20025;-74
2021/06/10 09:15:20;;;;;;;7.72;6.75;;;;;;;;;;5060177;28;20035;-73
2021/06/10 09:17:46;;;;;;;7.88;6.82;;;;;;;;;;5065043;28;20044;-73
2021/06/10 09:20:18;;;;;;;7.95;7.10;;;;;;;;;;5056537;28;20569;-74
2021/06/10 09:22:43;;;;;;;8.82;6.75;;;;;;;;;;5063445;28;20823;-74
2021/06/10 09:25:09;;;;;;;8.88;7.00;;;;;;;;;;5048594;28;20025;-74
2021/06/10 09:27:48;;;;;;;9.15;7.28;;;;;;;;;;5070833;28;20051;-74
2021/06/10 09:30:26;;;;;;;9.50;6.30;;;;;;;;;;5067805;28;20017;-73
2021/06/10 09:32:51;;;;;;;6.82;6.10;;;;;;;;;;5051871;28;20040;-74
2021/06/10 09:35:17;;;;;;;6.97;5.80;;;;;;;;;;5045587;28;20025;-74
2021/06/10 09:37:43;;;;;;;7.10;5.28;;;;;;;;;;5061522;28;20024;-74
2021/06/10 09:40:13;;;;;;;6.55;5.47;;;;;;;;;;5060824;28;20024;-74
2021/06/10 09:42:42;;;;;;;8.02;6.60;;;;;;;;;;5065567;28;20024;-74
2021/06/10 09:45:09;;;;;;;7.50;6.70;;;;;;;;;;5051082;28;20403;-73
2021/06/10 09:47:35;;;;;;;8.60;6.10;;;;;;;;;;5058475;28;20108;-73
2021/06/10 09:50:10;;;;;;;7.75;5.53;;;;;;;;;;5055992;28;20021;-74
2021/06/10 09:52:44;;;;;;;6.28;5.03;;;;;;;;;;5061780;28;20048;-75
2021/06/10 09:55:09;;;;;;;8.15;4.70;;;;;;;;;;5053407;28;20078;-73
2021/06/10 09:57:35;;;;;;;5.63;4.83;;;;;;;;;;5067350;28;20410;-74
2021/06/10 10:00:00;;;;;;;6.60;4.82;;;;;;;;;;5066129;28;20354;-73
2021/06/10 10:02:26;;;;;;;5.90;4.53;;;;;;;;;;5051336;28;20074;-74
2021/06/10 10:04:57;;;;;;;4.70;4.20;;;;;;;;;;5061001;28;20081;-73
2021/06/10 10:07:25;;;;;;;5.35;4.53;;;;;;;;;;5057096;28;20422;-74
2021/06/10 10:09:50;;;;;;;5.63;4.47;;;;;;;;;;5059193;28;20147;-73
2021/06/10 10:12:16;;;;;;;7.22;5.15;;;;;;;;;;5069817;28;20392;-74
2021/06/10 10:14:41;;;;;;;6.23;4.90;;;;;;;;;;5051604;28;20040;-74
2021/06/10 10:17:06;;;;;;;5.30;4.68;;;;;;;;;;5058472;28;20367;-74
2021/06/10 10:19:31;;;;;;;8.75;5.10;;;;;;;;;;5057120;28;20021;-73
2021/06/10 10:21:57;;;;;;;8.03;6.20;;;;;;;;;;5070410;28;20393;-73
2021/06/10 10:24:22;;;;;;;8.77;6.20;;;;;;;;;;5068383;28;20262;-74
2021/06/10 10:26:47;;;;;;;8.05;6.25;;;;;;;;;;5050307;28;20299;-74
2021/06/10 10:29:13;;;;;;;7.93;6.03;;;;;;;;;;5069698;28;20107;-73
2021/06/10 10:31:40;;;;;;;6.32;5.47;;;;;;;;;;5062647;28;20267;-74
2021/06/10 10:34:05;;;;;;;7.38;5.65;;;;;;;;;;5057122;28;20052;-74
2021/06/10 10:36:40;;;;;;;6.50;5.80;;;;;;;;;;5057311;28;20352;-73
2021/06/10 10:39:07;;;;;;;6.32;5.63;;;;;;;;;;5053670;28;20078;-75
2021/06/10 10:41:45;;;;;;;9.95;6.68;;;;;;;;;;5063582;28;20416;-74
2021/06/10 10:44:19;;;;;;;7.00;5.70;;;;;;;;;;5057391;28;20032;-74
2021/06/10 10:46:54;;;;;;;6.97;5.75;;;;;;;;;;5066670;28;20116;-74
2021/06/10 10:49:21;;;;;;;7.07;5.68;;;;;;;;;;5044670;28;20024;-75
2021/06/10 10:51:46;;;;;;;6.85;5.50;;;;;;;;;;5057519;28;20048;-74
2021/06/10 10:54:30;;;;;;;10.23;5.60;;;;;;;;;;5050501;28;20021;-74
2021/06/10 10:56:55;;;;;;;7.20;5.72;;;;;;;;;;5055326;28;20491;-74
2021/06/10 10:59:23;;;;;;;7.20;5.37;;;;;;;;;;5061476;28;20028;-73
2021/06/10 11:02:07;;;;;;;7.78;5.80;;;;;;;;;;5051643;28;20255;-73
2021/06/10 11:04:51;;;;;;;8.10;5.47;;;;;;;;;;5043912;28;20507;-74
2021/06/10 11:07:35;;;;;;;9.98;6.45;;;;;;;;;;5053630;28;20158;-73
2021/06/10 11:10:07;;;;;;;7.88;6.70;;;;;;;;;;5050559;28;20027;-73
2021/06/10 11:12:44;;;;;;;6.82;5.90;;;;;;;;;;5049510;28;20075;-74
2021/06/10 11:15:15;;;;;;;8.27;6.38;;;;;;;;;;5056424;28;20043;-74
2021/06/10 11:17:43;;;;;;;7.35;5.78;;;;;;;;;;5043530;28;20032;-74
2021/06/10 11:20:13;;;;;;;6.13;5.50;;;;;;;;;;5062982;28;20162;-74
2021/06/10 11:22:38;;;;;;;;;;;;;;;;;;5056571;28;20029;-72
2021/06/10 11:25:08;;;;;;;7.63;5.80;;;;;;;;;;5068974;28;19910;-74
2021/06/10 11:27:33;;;;;;;;;;;;;;;;;;5043564;28;20434;-73
2021/06/10 11:30:08;;;;;;;6.03;5.30;;;;;;;;;;5056160;28;19908;-73
2021/06/10 11:32:34;;;;;;;6.38;5.22;;;;;;;;;;5054700;28;20115;-74
2021/06/10 11:35:00;;;;;;;6.40;5.72;;;;;;;;;;5049498;28;20056;-72
2021/06/10 11:37:27;;;;;;;7.88;5.80;;;;;;;;;;5068547;28;20021;-74
2021/06/10 11:39:53;;;;;;;5.43;4.93;;;;;;;;;;5069002;28;20090;-74
2021/06/10 11:42:22;;;;;;;6.55;5.85;;;;;;;;;;5049044;28;20020;-74
2021/06/10 11:44:49;;;;;;;6.72;5.70;;;;;;;;;;5049369;28;20040;-75
2021/06/10 11:47:21;;;;;;;6.15;5.50;;;;;;;;;;5053718;28;20060;-74
2021/06/10 11:49:46;;;;;;;6.72;5.20;;;;;;;;;;5062674;28;20140;-74
2021/06/10 11:52:11;;;;;;;5.47;4.90;;;;;;;;;;5053878;28;20092;-74
2021/06/10 11:54:36;;;;;;;8.50;5.78;;;;;;;;;;5054349;28;20992;-75
2021/06/10 11:57:03;;;;;;;5.67;5.07;;;;;;;;;;5049730;28;20372;-74
2021/06/10 11:59:29;;;;;;;6.90;5.60;;;;;;;;;;5058250;28;20301;-74
2021/06/10 12:02:10;;;;;;;7.32;6.20;;;;;;;;;;5048890;28;20758;-75
2021/06/10 12:04:36;;;;;;;6.95;5.90;;;;;;;;;;5047135;28;20033;-71
2021/06/10 12:07:09;;;;;;;8.00;5.65;;;;;;;;;;5048525;28;20037;-72
2021/06/10 12:09:34;;;;;;;7.63;5.82;;;;;;;;;;5054864;28;20017;-72
2021/06/10 12:12:00;;;;;;;7.93;6.40;;;;;;;;;;5048520;28;20061;-72
2021/06/10 12:14:39;;;;;;;7.57;5.45;;;;;;;;;;5047238;28;20042;-72
2021/06/10 12:17:06;;;;;;;;;;;;;;;;;;5049016;28;20027;-71
2021/06/10 12:19:32;;;;;;;6.85;5.97;;;;;;;;;;5048815;28;19947;-71
2021/06/10 12:22:00;;;;;;;7.27;5.43;;;;;;;;;;5053681;28;20048;-70
2021/06/10 12:24:25;;;;;;;6.90;5.35;;;;;;;;;;5064164;28;20275;-72
2021/06/10 12:26:51;;;;;;;7.00;5.60;;;;;;;;;;5067294;28;20036;-71
2021/06/10 12:29:16;;;;;;;7.68;4.88;;;;;;;;;;5050938;28;20025;-73
2021/06/10 12:31:42;;;;;;;6.60;4.80;;;;;;;;;;5042982;28;20064;-71
2021/06/10 12:34:08;;;;;;;8.50;5.20;;;;;;;;;;5030108;28;20102;-71
2021/06/10 12:36:34;;;;;;;5.95;4.90;;;;;;;;;;5045132;28;20464;-71
2021/06/10 12:39:01;;;;;;;6.28;5.53;;;;;;;;;;5057712;28;20024;-72
2021/06/10 12:41:29;;;;;;;7.85;5.95;;;;;;;;;;5071321;28;20020;-71
2021/06/10 12:44:06;;;;;;;8.52;5.50;;;;;;;;;;5048022;28;20021;-72
2021/06/10 12:46:41;;;;;;;7.72;5.93;;;;;;;;;;5036903;28;20029;-74
2021/06/10 12:49:06;;;;;;;6.65;5.45;;;;;;;;;;5048521;28;20143;-73
2021/06/10 12:51:32;;;;;;;5.87;5.00;;;;;;;;;;5047234;28;20062;-74
2021/06/10 12:54:00;;;;;;;5.80;5.20;;;;;;;;;;5048183;28;20280;-73
2021/06/10 12:56:36;;;;;;;5.90;5.00;;;;;;;;;;5034181;28;20101;-72
2021/06/10 12:59:04;;;;;;;7.95;4.75;;;;;;;;;;5038811;28;20027;-71
2021/06/10 13:01:29;;;;;;;5.82;4.63;;;;;;;;;;5054363;28;20016;-71
2021/06/10 13:03:54;;;;;;;6.95;5.00;;;;;;;;;;5054579;28;20826;-71
2021/06/10 13:06:28;;;;;;;5.23;4.73;;;;;;;;;;5052124;28;20448;-73
2021/06/10 13:08:53;;;;;;;6.82;4.82;;;;;;;;;;5048328;28;20309;-72
2021/06/10 13:11:19;;;;;;;5.47;4.45;;;;;;;;;;5049835;28;20024;-73
2021/06/10 13:13:44;;;;;;;6.25;4.70;;;;;;;;;;5060042;28;20017;-73
2021/06/10 13:16:13;;;;;;;5.90;4.50;;;;;;;;;;5050930;28;20032;-72
2021/06/10 13:18:39;;;;;;;6.47;4.90;;;;;;;;;;5051697;28;20100;-72
2021/06/10 13:21:13;;;;;;;6.55;4.68;;;;;;;;;;5048945;28;20111;-70
2021/06/10 13:23:40;;;;;;;4.95;4.40;;;;;;;;;;5066723;28;20020;-71
2021/06/10 13:26:06;;;;;;;7.20;4.50;;;;;;;;;;5059660;28;20090;-71
2021/06/10 13:28:32;;;;;;;5.20;4.70;;;;;;;;;;5040737;28;20020;-71
2021/06/10 13:31:14;;;;;;;7.60;4.80;;;;;;;;;;5062376;28;20026;-71
2021/06/10 13:33:40;;;;;;;6.18;4.53;;;;;;;;;;5045189;28;20049;-71
2021/06/10 13:36:11;;;;;;;5.65;4.38;;;;;;;;;;5067249;28;20021;-72
2021/06/10 13:38:37;;;;;;;5.47;4.20;;;;;;;;;;5038036;28;20480;-71
2021/06/10 13:41:03;;;;;;;5.28;4.78;;;;;;;;;;5050997;28;20024;-74
2021/06/10 13:43:32;;;;;;;6.20;4.20;;;;;;;;;;5049700;28;20032;-72
2021/06/10 13:45:57;;;;;;;5.85;4.15;;;;;;;;;;5070216;28;20032;-76
2021/06/10 13:48:22;;;;;;;5.18;4.30;;;;;;;;;;5060375;28;20069;-74
2021/06/10 13:50:48;;;;;;;5.37;4.50;;;;;;;;;;5062801;28;20029;-71
2021/06/10 13:53:13;;;;;;;8.93;4.37;;;;;;;;;;5047750;28;20350;-72
2021/06/10 13:55:38;;;;;;;6.03;4.47;;;;;;;;;;5061574;28;20032;-72
2021/06/10 13:58:03;;;;;;;8.10;4.97;;;;;;;;;;5059963;28;20139;-71
2021/06/10 14:00:28;;;;;;;4.80;4.03;;;;;;;;;;5049866;28;20044;-72
2021/06/10 14:02:53;;;;;;;5.27;4.60;;;;;;;;;;5049024;28;20394;-73
2021/06/10 14:05:19;;;;;;;5.63;4.30;;;;;;;;;;5049180;28;20264;-72
2021/06/10 14:07:44;;;;;;;6.43;4.28;;;;;;;;;;5052670;28;20289;-72
2021/06/10 14:10:09;;;;;;;6.63;4.80;;;;;;;;;;5052259;28;20066;-69
2021/06/10 14:12:34;;;;;;;8.05;4.30;;;;;;;;;;5061554;28;20489;-68
2021/06/10 14:15:00;;;;;;;4.82;4.00;;;;;;;;;;5054125;28;20032;-67
2021/06/10 14:17:25;;;;;;;6.40;4.33;;;;;;;;;;5045246;28;20036;-72
2021/06/10 14:19:50;;;;;;;5.50;4.45;;;;;;;;;;5046452;28;20014;-70
2021/06/10 14:22:16;;;;;;;5.40;4.18;;;;;;;;;;5042128;28;20032;-69
2021/06/10 14:24:42;;;;;;;7.25;4.00;;;;;;;;;;5045015;28;20492;-72
2021/06/10 14:27:09;;;;;;;5.20;4.25;;;;;;;;;;5042630;28;20116;-71
2021/06/10 14:32:19;;;;;;;5.43;4.17;;;;;;;;;;5043595;28;20031;-70
2021/06/10 14:34:49;;;;;;;4.72;3.90;;;;;;;;;;5040468;28;20139;-72